Time;durP1;ratioP1;P1;durP2;ratioP2;P2;SDS_P1;SDS_P2;PMS_P1;PMS_P2;Temp;Humidity;BMP_temperature;BMP_pressure;BME280_temperature;BME280_humidity;BME280_pressure;Samples;Min_cycle;Max_cycle;Signal;HPM_P1;HPM_P2
2023/01/23 00:00:48;;;;;;;26.63;12.97;;;1.70;99.90;;;;;;7838056;28;20190;-88
2023/01/23 00:04:34;;;;;;;26.80;13.00;;;1.70;99.90;;;;;;7837903;28;20178;-88
2023/01/23 00:08:20;;;;;;;26.90;12.53;;;1.70;99.90;;;;;;7819862;28;20777;-88
2023/01/23 00:12:06;;;;;;;25.10;12.33;;;1.70;99.90;;;;;;7820101;28;20702;-88
2023/01/23 00:15:52;;;;;;;25.17;11.83;;;1.60;99.90;;;;;;7837879;28;20515;-88
2023/01/23 00:19:37;;;;;;;27.27;13.00;;;1.60;99.90;;;;;;7813415;28;20199;-88
2023/01/23 00:23:23;;;;;;;26.33;12.70;;;1.60;99.90;;;;;;7806873;28;20214;-87
2023/01/23 00:27:09;;;;;;;26.47;12.43;;;1.60;99.90;;;;;;7788493;28;20183;-88
2023/01/23 00:31:02;;;;;;;26.30;11.63;;;1.70;99.90;;;;;;7789238;28;20238;-88
2023/01/23 00:34:48;;;;;;;25.97;12.33;;;1.60;99.90;;;;;;7789083;28;20206;-88
2023/01/23 00:38:34;;;;;;;24.80;12.27;;;1.60;99.90;;;;;;7788467;28;20226;-88
2023/01/23 00:42:19;;;;;;;23.57;12.00;;;1.60;99.90;;;;;;7806888;28;20210;-88
2023/01/23 00:46:05;;;;;;;28.00;13.00;;;1.60;99.90;;;;;;7788969;28;20186;-88
2023/01/23 00:49:52;;;;;;;26.67;12.40;;;1.60;99.90;;;;;;7788341;28;20198;-88
2023/01/23 00:53:38;;;;;;;25.17;13.10;;;1.60;99.90;;;;;;7791497;28;20251;-88
2023/01/23 00:57:24;;;;;;;24.73;12.43;;;1.60;99.90;;;;;;7793825;28;20182;-88
2023/01/23 01:01:10;;;;;;;24.67;12.37;;;1.60;99.90;;;;;;7794329;28;20296;-88
2023/01/23 01:04:56;;;;;;;24.53;11.93;;;1.60;99.90;;;;;;7794135;28;20186;-88
2023/01/23 01:08:42;;;;;;;26.87;12.97;;;1.60;99.90;;;;;;7793725;28;20203;-87
2023/01/23 01:12:27;;;;;;;25.87;12.27;;;1.60;99.90;;;;;;7794115;28;20210;-88
2023/01/23 01:16:13;;;;;;;25.23;12.50;;;1.60;99.90;;;;;;7793830;28;20183;-87
2023/01/23 01:19:58;;;;;;;23.33;11.37;;;1.60;99.90;;;;;;7793266;28;20191;-88
2023/01/23 01:23:45;;;;;;;23.83;12.03;;;1.60;99.90;;;;;;7794039;28;20655;-88
2023/01/23 01:27:31;;;;;;;25.13;12.03;;;1.60;99.90;;;;;;7810654;28;20540;-88
2023/01/23 01:31:16;;;;;;;26.33;12.23;;;1.70;99.90;;;;;;7787985;28;20281;-87
2023/01/23 01:35:04;;;;;;;24.70;12.00;;;1.60;99.90;;;;;;7792398;28;20571;-87
2023/01/23 01:38:50;;;;;;;23.03;10.80;;;1.60;99.90;;;;;;7792046;28;20727;-87
2023/01/23 01:42:41;;;;;;;25.60;12.40;;;1.60;99.90;;;;;;7792231;28;20525;-87
2023/01/23 01:46:29;;;;;;;25.47;11.90;;;1.60;99.90;;;;;;7791613;28;20182;-88
2023/01/23 01:50:15;;;;;;;25.60;12.97;;;1.50;99.90;;;;;;7791814;28;20835;-87
2023/01/23 01:54:18;;;;;;;28.97;11.90;;;1.60;99.90;;;;;;7809677;28;20580;-87
2023/01/23 01:58:04;;;;;;;24.23;11.80;;;1.60;99.90;;;;;;7809249;28;20170;-87
2023/01/23 02:01:55;;;;;;;26.93;11.77;;;1.50;99.90;;;;;;7792072;28;20190;-87
2023/01/23 02:05:47;;;;;;;27.77;11.70;;;1.50;99.90;;;;;;7808880;28;20170;-88
2023/01/23 02:09:34;;;;;;;28.63;12.23;;;1.50;99.90;;;;;;7809419;28;20722;-87
2023/01/23 02:13:31;;;;;;;26.03;12.73;;;1.50;99.90;;;;;;7791338;28;20706;-87
2023/01/23 02:17:17;;;;;;;25.13;12.37;;;1.50;99.90;;;;;;7790385;28;20254;-88
2023/01/23 02:21:06;;;;;;;22.93;10.77;;;1.50;99.90;;;;;;7791240;28;20206;-88
2023/01/23 02:25:31;;;;;;;25.10;11.30;;;1.60;99.90;;;;;;7800635;28;20186;-87
2023/01/23 02:29:19;;;;;;;26.43;12.37;;;1.50;99.90;;;;;;7753823;28;20223;-87
2023/01/23 02:33:19;;;;;;;26.03;12.90;;;1.50;99.90;;;;;;7793082;28;20749;-88
2023/01/23 02:37:07;;;;;;;24.57;11.43;;;1.50;99.90;;;;;;7808538;28;20212;-88
2023/01/23 02:40:54;;;;;;;25.57;12.63;;;1.50;99.90;;;;;;7822168;28;20287;-88
2023/01/23 02:44:40;;;;;;;27.07;12.20;;;1.50;99.90;;;;;;7822067;28;20842;-88
2023/01/23 02:48:26;;;;;;;25.50;12.03;;;1.50;99.90;;;;;;7812310;28;20312;-87
2023/01/23 02:52:11;;;;;;;29.30;13.00;;;1.50;99.90;;;;;;7808908;28;20205;-87
2023/01/23 02:55:58;;;;;;;30.70;12.77;;;1.50;99.90;;;;;;7820757;28;20185;-87
2023/01/23 03:03:52;;;;;;;25.50;12.07;;;1.60;99.90;;;;;;7838842;28;20166;-87
2023/01/23 03:07:37;;;;;;;24.03;11.33;;;1.60;99.90;;;;;;7820173;28;20178;-88
2023/01/23 03:11:24;;;;;;;26.47;12.00;;;1.60;99.90;;;;;;7838141;28;20247;-87
2023/01/23 03:15:10;;;;;;;24.30;11.43;;;1.50;99.90;;;;;;7796853;28;20182;-87
2023/01/23 03:18:57;;;;;;;22.13;11.23;;;1.40;99.90;;;;;;7788621;28;20195;-87
2023/01/23 03:22:43;;;;;;;26.87;11.73;;;1.50;99.90;;;;;;7789062;28;20198;-85
2023/01/23 03:26:29;;;;;;;26.17;12.13;;;1.40;99.90;;;;;;7788035;28;20183;-87
2023/01/23 03:30:15;;;;;;;24.60;12.43;;;1.40;99.90;;;;;;7788614;28;20218;-88
2023/01/23 03:34:01;;;;;;;27.70;12.17;;;1.50;99.90;;;;;;7806229;28;20202;-87
2023/01/23 03:37:48;;;;;;;23.50;11.43;;;1.50;99.90;;;;;;7788495;28;20190;-86
2023/01/23 03:41:35;;;;;;;25.27;12.43;;;1.50;99.90;;;;;;7806389;28;20602;-86
2023/01/23 03:45:20;;;;;;;28.47;12.23;;;1.50;99.90;;;;;;7788303;28;20265;-88
2023/01/23 03:49:06;;;;;;;26.30;12.67;;;1.50;99.90;;;;;;7809653;28;20202;-88
2023/01/23 03:52:52;;;;;;;26.57;11.83;;;1.50;99.90;;;;;;7819244;28;20657;-87
2023/01/23 03:56:37;;;;;;;27.60;12.70;;;1.40;99.90;;;;;;7818344;28;20178;-87
2023/01/23 04:00:23;;;;;;;25.43;12.60;;;1.50;99.90;;;;;;7818734;28;20574;-88
2023/01/23 04:04:09;;;;;;;28.03;12.20;;;1.40;99.90;;;;;;7818785;28;20180;-88
2023/01/23 04:07:54;;;;;;;29.10;12.23;;;1.40;99.90;;;;;;7801098;28;20598;-87
2023/01/23 04:11:40;;;;;;;30.80;13.07;;;1.40;99.90;;;;;;7805779;28;20681;-87
2023/01/23 04:15:26;;;;;;;27.67;13.20;;;1.40;99.90;;;;;;7787731;28;20225;-88
2023/01/23 04:19:11;;;;;;;33.97;13.87;;;1.40;99.90;;;;;;7805365;28;20389;-88
2023/01/23 04:22:57;;;;;;;31.50;14.50;;;1.50;99.90;;;;;;7788462;28;20236;-87
2023/01/23 04:26:43;;;;;;;33.23;14.37;;;1.40;99.90;;;;;;7787667;28;20183;-87
2023/01/23 09:17:45;;;;;;;48.67;19.50;;;1.40;99.90;;;;;;8324944;23;20576;-88
2023/01/23 09:21:30;;;;;;;50.53;20.60;;;1.40;99.90;;;;;;7783623;28;20262;-88
2023/01/23 09:25:16;;;;;;;47.30;19.23;;;1.40;99.90;;;;;;7777939;28;20183;-88
2023/01/23 13:06:45;;;;;;;52.53;24.60;;;1.90;99.90;;;;;;8824730;23;20702;-88
2023/01/23 13:14:46;;;;;;;46.50;19.10;;;1.90;99.90;;;;;;7797870;28;20183;-88
2023/01/23 19:18:55;;;;;;;47.23;21.97;;;1.40;99.90;;;;;;9583044;23;20226;-87
2023/01/23 19:23:03;;;;;;;70.87;28.23;;;1.40;99.90;;;;;;7726043;28;20208;-87
2023/01/23 19:26:49;;;;;;;59.10;25.40;;;1.40;99.90;;;;;;7728974;28;20177;-88
2023/01/23 19:30:37;;;;;;;58.50;24.70;;;1.40;99.90;;;;;;7738804;28;20206;-86
2023/01/23 19:34:23;;;;;;;64.70;26.73;;;1.40;99.90;;;;;;7757155;28;20214;-88
2023/01/23 19:38:09;;;;;;;64.13;27.27;;;1.40;99.90;;;;;;7743732;28;20180;-88
2023/01/23 19:41:56;;;;;;;70.83;27.90;;;1.40;99.90;;;;;;7744741;28;20645;-87
2023/01/23 19:45:43;;;;;;;60.23;25.60;;;1.50;99.90;;;;;;7751040;28;20188;-89
2023/01/23 19:49:29;;;;;;;63.73;25.47;;;1.40;99.90;;;;;;7741590;28;20211;-88
2023/01/23 19:53:16;;;;;;;72.20;29.13;;;1.40;99.90;;;;;;7716169;28;20212;-88
2023/01/23 19:57:01;;;;;;;62.73;25.97;;;1.60;99.90;;;;;;7767018;28;20682;-88
2023/01/23 20:00:47;;;;;;;60.10;25.03;;;1.50;99.90;;;;;;7752226;28;20549;-89
2023/01/23 20:04:33;;;;;;;62.63;25.30;;;1.40;99.90;;;;;;7761890;28;20656;-89
2023/01/23 20:08:18;;;;;;;55.97;24.10;;;1.40;99.90;;;;;;7764954;28;20858;-87
2023/01/23 20:12:04;;;;;;;66.00;27.67;;;1.30;99.90;;;;;;7752049;28;20226;-87
2023/01/23 20:15:50;;;;;;;57.30;24.37;;;1.30;99.90;;;;;;7760676;28;20233;-88
2023/01/23 20:19:37;;;;;;;53.10;24.30;;;1.30;99.90;;;;;;7736381;28;20219;-86
2023/01/23 20:23:28;;;;;;;56.77;22.97;;;1.40;99.90;;;;;;7743359;28;20789;-88
2023/01/23 20:27:13;;;;;;;56.70;23.00;;;1.30;99.90;;;;;;7728019;28;20200;-88
2023/01/23 20:31:08;;;;;;;59.90;24.73;;;1.30;99.90;;;;;;7755654;28;20200;-88
2023/01/23 20:34:54;;;;;;;58.47;25.33;;;1.30;99.90;;;;;;7771947;28;20243;-88
2023/01/23 20:38:40;;;;;;;57.10;23.37;;;1.30;99.90;;;;;;7743238;28;20223;-88
2023/01/23 20:42:26;;;;;;;56.00;22.80;;;1.30;99.90;;;;;;7753121;28;20956;-88
2023/01/23 20:46:14;;;;;;;56.17;23.43;;;1.30;99.90;;;;;;7755664;28;20563;-88
2023/01/23 20:50:01;;;;;;;58.70;23.40;;;1.30;99.90;;;;;;7741151;28;20323;-88
2023/01/23 20:53:46;;;;;;;60.80;24.00;;;1.30;99.90;;;;;;7742910;28;20204;-89
2023/01/23 21:05:41;;;;;;;62.87;24.50;;;1.30;99.90;;;;;;7740530;28;20215;-88
2023/01/23 21:09:27;;;;;;;64.03;24.70;;;1.30;99.90;;;;;;7757434;28;20223;-88
2023/01/23 21:13:16;;;;;;;59.23;22.33;;;1.30;99.90;;;;;;7741537;28;20571;-88
2023/01/23 21:17:04;;;;;;;64.50;23.97;;;1.40;99.90;;;;;;7746068;28;20274;-88
2023/01/23 21:20:51;;;;;;;61.17;24.63;;;1.30;99.90;;;;;;7760142;28;20639;-88
2023/01/23 21:24:36;;;;;;;72.77;28.00;;;1.40;99.90;;;;;;7753803;28;20712;-88
2023/01/23 21:28:22;;;;;;;59.57;24.63;;;1.30;99.90;;;;;;7750647;28;21195;-88
2023/01/23 21:32:08;;;;;;;63.67;25.33;;;1.30;99.90;;;;;;7757715;28;20601;-88
2023/01/23 21:35:53;;;;;;;62.77;25.80;;;1.30;99.90;;;;;;7739585;28;20216;-88
2023/01/23 21:39:40;;;;;;;83.40;31.37;;;1.30;99.90;;;;;;7734982;28;20274;-87
2023/01/23 21:43:26;;;;;;;69.50;27.33;;;1.30;99.90;;;;;;7737880;28;20193;-89
2023/01/23 21:47:11;;;;;;;73.27;29.27;;;1.30;99.90;;;;;;7730813;28;20195;-88
2023/01/23 21:51:18;;;;;;;62.60;26.17;;;1.20;99.90;;;;;;7736285;28;20685;-88
2023/01/23 21:55:04;;;;;;;72.83;26.43;;;1.20;99.90;;;;;;7734031;28;20195;-87
2023/01/23 21:58:50;;;;;;;56.20;23.03;;;1.20;99.90;;;;;;7760129;28;20239;-88
2023/01/23 22:02:35;;;;;;;66.53;26.07;;;1.20;99.90;;;;;;7763722;28;20184;-88
2023/01/23 22:06:21;;;;;;;74.33;26.93;;;1.20;99.90;;;;;;7763658;28;20176;-88
2023/01/23 22:10:07;;;;;;;66.27;23.67;;;1.20;99.90;;;;;;7763879;28;20208;-88
2023/01/23 22:13:53;;;;;;;58.43;23.37;;;1.20;99.90;;;;;;7749384;28;20778;-88
2023/01/23 22:17:39;;;;;;;52.67;21.93;;;1.20;99.90;;;;;;7728716;28;20184;-88
2023/01/23 22:21:25;;;;;;;63.60;24.03;;;1.30;99.90;;;;;;7748405;28;20728;-87
2023/01/23 22:25:10;;;;;;;61.23;24.93;;;1.40;99.90;;;;;;7733315;28;20242;-88
2023/01/23 22:33:03;;;;;;;57.80;22.90;;;1.30;99.90;;;;;;7733623;28;20204;-87
2023/01/23 22:36:48;;;;;;;60.37;23.13;;;1.30;99.90;;;;;;7740202;28;20183;-88
2023/01/23 22:40:35;;;;;;;63.07;23.73;;;1.30;99.90;;;;;;7747009;28;20196;-87
2023/01/23 22:44:20;;;;;;;59.87;23.10;;;1.30;99.90;;;;;;7745576;28;20180;-88
2023/01/23 22:48:06;;;;;;;72.37;24.40;;;1.30;99.90;;;;;;7745245;28;20274;-87
2023/01/23 22:51:52;;;;;;;65.87;23.33;;;1.20;99.90;;;;;;7745694;28;20282;-88
2023/01/23 22:55:37;;;;;;;60.03;21.93;;;1.20;99.90;;;;;;7745423;28;20206;-88
2023/01/23 22:59:23;;;;;;;61.50;22.10;;;1.20;99.90;;;;;;7744995;28;20203;-87
2023/01/23 23:03:09;;;;;;;57.40;22.60;;;1.30;99.90;;;;;;7743891;28;20180;-87
2023/01/23 23:06:54;;;;;;;55.97;22.37;;;1.20;99.90;;;;;;7744545;28;20184;-88
2023/01/23 23:10:40;;;;;;;64.03;24.17;;;1.20;99.90;;;;;;7745463;28;20200;-88
2023/01/23 23:14:25;;;;;;;53.13;23.10;;;1.30;99.90;;;;;;7745111;28;20296;-88
2023/01/23 23:18:11;;;;;;;52.77;22.57;;;1.30;99.90;;;;;;7744719;28;20210;-88
2023/01/23 23:21:57;;;;;;;59.80;23.83;;;1.30;99.90;;;;;;7746219;28;20191;-88
2023/01/23 23:25:42;;;;;;;55.83;22.50;;;1.30;99.90;;;;;;7744631;28;20180;-88
2023/01/23 23:29:28;;;;;;;60.10;22.37;;;1.30;99.90;;;;;;7743917;28;20200;-87
2023/01/23 23:33:13;;;;;;;57.43;23.30;;;1.30;99.90;;;;;;7744266;28;20229;-88
2023/01/23 23:36:59;;;;;;;61.00;22.20;;;1.30;99.90;;;;;;7742201;28;20180;-88
2023/01/23 23:41:00;;;;;;;63.30;24.13;;;1.30;99.90;;;;;;7744140;28;20266;-88
2023/01/23 23:44:45;;;;;;;58.13;22.83;;;1.30;99.90;;;;;;7744310;28;20229;-87
2023/01/23 23:48:32;;;;;;;66.53;22.70;;;1.30;99.90;;;;;;7743835;28;20227;-87
2023/01/23 23:52:18;;;;;;;60.07;24.23;;;1.30;99.90;;;;;;7744016;28;20199;-87
2023/01/23 23:56:04;;;;;;;69.37;25.03;;;1.20;99.90;;;;;;7744210;28;20270;-87
2023/01/23 23:59:50;;;;;;;58.27;22.00;;;1.20;99.90;;;;;;7743393;28;20196;-87
